CheckWX is a tool to help pilots better visualize weather data.  It is not intended as a substitute for an official pre-flight weather briefing.

15:04:16 UTC

KIBM METAR
Kimball Municipal / Robert E Arraj Field Airport
Kimball, Nebraska, USA
Current

29 mins ago

KIBM 211435Z AUTO 04005KT 10SM OVC007 18/16 A3019 RMK AO2 T01820156
Observed
Jul-21 @ 14:35 UTC
Wind
  • 040° at 5 KTS
Visibility
10 SM
Flight Rules
IFR
Cloud Levels
  • Overcast at 700' AGL
Temperature
18°C / 64°F
Dewpoint
16°C / 61°F
Humidity
88%
Altimeter
30.19" Hg
Pressure
1022.32 hPa
Previous

49 mins ago

KIBM 211415Z AUTO 05003KT 10SM OVC007 18/16 A3019 RMK AO2 T01760155
Observed
Jul-21 @ 14:15 UTC
Wind
  • 050° at 3 KTS
Visibility
10 SM
Flight Rules
IFR
Cloud Levels
  • Overcast at 700' AGL
Temperature
18°C / 64°F
Dewpoint
16°C / 61°F
Humidity
88%
Altimeter
30.19" Hg
Pressure
1022.32 hPa
Previous

1 hour ago

KIBM 211355Z AUTO 36004KT 10SM OVC007 18/16 A3018 RMK AO2 T01750156
Observed
Jul-21 @ 13:55 UTC
Wind
  • 360° at 4 KTS
Visibility
10 SM
Flight Rules
IFR
Cloud Levels
  • Overcast at 700' AGL
Temperature
18°C / 64°F
Dewpoint
16°C / 61°F
Humidity
88%
Altimeter
30.18" Hg
Pressure
1022.02 hPa